sensor_id;sensor_type;location;lat;lon;timestamp;temperature;humidity
16968;DHT22;64862;54.398;10.126;2024-02-21T00:04:18;8.90;99.90
16968;DHT22;64862;54.398;10.126;2024-02-21T00:14:21;8.90;99.90
16968;DHT22;64862;54.398;10.126;2024-02-21T00:24:23;9.00;99.90
16968;DHT22;64862;54.398;10.126;2024-02-21T00:34:27;9.00;99.90
16968;DHT22;64862;54.398;10.126;2024-02-21T00:44:29;9.10;99.90
16968;DHT22;64862;54.398;10.126;2024-02-21T00:54:32;9.10;99.90
16968;DHT22;64862;54.398;10.126;2024-02-21T01:04:34;9.10;99.90
16968;DHT22;64862;54.398;10.126;2024-02-21T01:14:38;9.20;99.90
16968;DHT22;64862;54.398;10.126;2024-02-21T01:24:40;9.10;99.90
16968;DHT22;64862;54.398;10.126;2024-02-21T01:34:44;9.20;99.90
16968;DHT22;64862;54.398;10.126;2024-02-21T01:44:46;9.10;99.90
16968;DHT22;64862;54.398;10.126;2024-02-21T01:54:49;9.10;99.90
16968;DHT22;64862;54.398;10.126;2024-02-21T02:04:52;9.10;99.90
16968;DHT22;64862;54.398;10.126;2024-02-21T02:15:00;9.10;99.90
16968;DHT22;64862;54.398;10.126;2024-02-21T02:25:04;9.20;99.90
16968;DHT22;64862;54.398;10.126;2024-02-21T02:35:06;9.20;99.90
16968;DHT22;64862;54.398;10.126;2024-02-21T02:45:11;9.20;99.90
16968;DHT22;64862;54.398;10.126;2024-02-21T02:55:13;9.10;99.90
16968;DHT22;64862;54.398;10.126;2024-02-21T03:05:17;9.10;99.90
16968;DHT22;64862;54.398;10.126;2024-02-21T03:15:21;9.00;99.90
16968;DHT22;64862;54.398;10.126;2024-02-21T03:25:24;9.00;99.90
16968;DHT22;64862;54.398;10.126;2024-02-21T03:35:26;9.00;99.90
16968;DHT22;64862;54.398;10.126;2024-02-21T03:45:30;8.90;99.90
16968;DHT22;64862;54.398;10.126;2024-02-21T03:55:32;8.90;99.90
16968;DHT22;64862;54.398;10.126;2024-02-21T04:05:35;8.70;99.90
16968;DHT22;64862;54.398;10.126;2024-02-21T04:15:38;8.60;99.90
16968;DHT22;64862;54.398;10.126;2024-02-21T04:25:41;8.50;99.90
16968;DHT22;64862;54.398;10.126;2024-02-21T04:35:43;8.50;99.90
16968;DHT22;64862;54.398;10.126;2024-02-21T04:45:47;8.40;99.90
16968;DHT22;64862;54.398;10.126;2024-02-21T04:55:49;8.40;99.90
16968;DHT22;64862;54.398;10.126;2024-02-21T05:05:53;8.40;99.90
16968;DHT22;64862;54.398;10.126;2024-02-21T05:15:55;8.40;99.90
16968;DHT22;64862;54.398;10.126;2024-02-21T05:25:58;8.40;99.90
16968;DHT22;64862;54.398;10.126;2024-02-21T05:36:00;8.40;99.90
16968;DHT22;64862;54.398;10.126;2024-02-21T05:46:04;8.40;99.90
16968;DHT22;64862;54.398;10.126;2024-02-21T05:56:10;8.40;99.90
16968;DHT22;64862;54.398;10.126;2024-02-21T06:06:13;8.30;99.90
16968;DHT22;64862;54.398;10.126;2024-02-21T06:16:16;8.30;99.90
16968;DHT22;64862;54.398;10.126;2024-02-21T06:26:19;8.20;99.90
16968;DHT22;64862;54.398;10.126;2024-02-21T06:36:21;8.00;99.90
16968;DHT22;64862;54.398;10.126;2024-02-21T06:46:26;8.00;99.90
16968;DHT22;64862;54.398;10.126;2024-02-21T06:56:29;8.00;99.90
16968;DHT22;64862;54.398;10.126;2024-02-21T07:06:32;8.00;99.90
16968;DHT22;64862;54.398;10.126;2024-02-21T07:16:35;8.00;99.90
16968;DHT22;64862;54.398;10.126;2024-02-21T07:26:41;8.00;99.90
16968;DHT22;64862;54.398;10.126;2024-02-21T07:36:43;7.90;99.90
16968;DHT22;64862;54.398;10.126;2024-02-21T07:46:47;7.70;99.90
16968;DHT22;64862;54.398;10.126;2024-02-21T07:56:49;7.70;99.90
16968;DHT22;64862;54.398;10.126;2024-02-21T08:06:53;7.80;99.90
16968;DHT22;64862;54.398;10.126;2024-02-21T08:16:56;7.70;99.90
16968;DHT22;64862;54.398;10.126;2024-02-21T08:26:59;7.70;99.90
16968;DHT22;64862;54.398;10.126;2024-02-21T08:37:01;7.80;99.90
16968;DHT22;64862;54.398;10.126;2024-02-21T08:47:05;7.90;99.90
16968;DHT22;64862;54.398;10.126;2024-02-21T08:57:08;7.90;99.90
16968;DHT22;64862;54.398;10.126;2024-02-21T09:07:12;8.00;99.90
16968;DHT22;64862;54.398;10.126;2024-02-21T09:17:14;8.00;99.90
16968;DHT22;64862;54.398;10.126;2024-02-21T09:27:19;8.10;99.90
16968;DHT22;64862;54.398;10.126;2024-02-21T09:37:21;8.20;99.90
16968;DHT22;64862;54.398;10.126;2024-02-21T09:47:34;8.20;99.90
16968;DHT22;64862;54.398;10.126;2024-02-21T09:57:40;8.30;99.90
16968;DHT22;64862;54.398;10.126;2024-02-21T10:07:43;8.40;99.90
16968;DHT22;64862;54.398;10.126;2024-02-21T10:17:46;8.50;99.90
16968;DHT22;64862;54.398;10.126;2024-02-21T10:27:49;8.60;99.90
16968;DHT22;64862;54.398;10.126;2024-02-21T10:37:52;8.70;99.90
16968;DHT22;64862;54.398;10.126;2024-02-21T10:48:03;8.90;99.90
16968;DHT22;64862;54.398;10.126;2024-02-21T10:58:10;9.10;99.90
16968;DHT22;64862;54.398;10.126;2024-02-21T11:08:14;9.20;99.90
16968;DHT22;64862;54.398;10.126;2024-02-21T11:18:23;9.30;99.90
16968;DHT22;64862;54.398;10.126;2024-02-21T11:28:27;9.50;99.90
16968;DHT22;64862;54.398;10.126;2024-02-21T11:38:29;9.60;99.90
16968;DHT22;64862;54.398;10.126;2024-02-21T11:48:33;9.80;99.90
16968;DHT22;64862;54.398;10.126;2024-02-21T11:58:35;9.90;99.90
16968;DHT22;64862;54.398;10.126;2024-02-21T12:08:43;10.00;99.90
16968;DHT22;64862;54.398;10.126;2024-02-21T12:18:45;10.00;99.90
16968;DHT22;64862;54.398;10.126;2024-02-21T12:28:48;10.00;99.90
16968;DHT22;64862;54.398;10.126;2024-02-21T12:38:50;10.20;99.90
16968;DHT22;64862;54.398;10.126;2024-02-21T12:48:54;10.30;99.90
16968;DHT22;64862;54.398;10.126;2024-02-21T12:58:58;10.20;99.90
16968;DHT22;64862;54.398;10.126;2024-02-21T13:09:02;10.10;99.90
16968;DHT22;64862;54.398;10.126;2024-02-21T13:19:08;10.10;99.90
16968;DHT22;64862;54.398;10.126;2024-02-21T13:29:12;10.10;99.90
16968;DHT22;64862;54.398;10.126;2024-02-21T13:39:14;9.90;99.90
16968;DHT22;64862;54.398;10.126;2024-02-21T13:49:18;9.90;99.90
16968;DHT22;64862;54.398;10.126;2024-02-21T13:59:20;9.70;99.90
16968;DHT22;64862;54.398;10.126;2024-02-21T14:09:23;9.70;99.90
16968;DHT22;64862;54.398;10.126;2024-02-21T14:19:25;9.60;99.90
16968;DHT22;64862;54.398;10.126;2024-02-21T14:29:28;9.70;99.90
16968;DHT22;64862;54.398;10.126;2024-02-21T14:39:30;9.70;99.90
16968;DHT22;64862;54.398;10.126;2024-02-21T14:49:36;9.70;99.90
16968;DHT22;64862;54.398;10.126;2024-02-21T14:59:40;9.70;99.90
16968;DHT22;64862;54.398;10.126;2024-02-21T15:09:43;9.70;99.90
16968;DHT22;64862;54.398;10.126;2024-02-21T15:19:45;9.60;99.90
16968;DHT22;64862;54.398;10.126;2024-02-21T15:29:52;9.70;99.90
16968;DHT22;64862;54.398;10.126;2024-02-21T15:39:54;9.60;99.90
16968;DHT22;64862;54.398;10.126;2024-02-21T15:49:57;9.60;99.90
16968;DHT22;64862;54.398;10.126;2024-02-21T16:00:01;9.50;99.90
16968;DHT22;64862;54.398;10.126;2024-02-21T16:10:12;9.40;99.90
16968;DHT22;64862;54.398;10.126;2024-02-21T16:20:14;9.40;99.90
16968;DHT22;64862;54.398;10.126;2024-02-21T16:30:18;9.30;99.90
16968;DHT22;64862;54.398;10.126;2024-02-21T16:40:20;9.30;99.90
16968;DHT22;64862;54.398;10.126;2024-02-21T16:50:24;9.30;99.90
16968;DHT22;64862;54.398;10.126;2024-02-21T17:00:26;9.20;99.90
16968;DHT22;64862;54.398;10.126;2024-02-21T17:10:29;9.20;99.90
16968;DHT22;64862;54.398;10.126;2024-02-21T17:20:32;9.20;99.90
16968;DHT22;64862;54.398;10.126;2024-02-21T17:30:36;9.20;99.90
16968;DHT22;64862;54.398;10.126;2024-02-21T17:40:38;9.20;99.90
16968;DHT22;64862;54.398;10.126;2024-02-21T17:50:41;9.20;99.90
16968;DHT22;64862;54.398;10.126;2024-02-21T18:00:43;9.10;99.90
16968;DHT22;64862;54.398;10.126;2024-02-21T18:10:47;9.10;99.90
16968;DHT22;64862;54.398;10.126;2024-02-21T18:20:49;9.10;99.90
16968;DHT22;64862;54.398;10.126;2024-02-21T18:30:54;9.10;99.90
16968;DHT22;64862;54.398;10.126;2024-02-21T18:40:57;9.10;99.90
16968;DHT22;64862;54.398;10.126;2024-02-21T18:51:01;9.10;99.90
16968;DHT22;64862;54.398;10.126;2024-02-21T19:01:04;9.10;99.90
16968;DHT22;64862;54.398;10.126;2024-02-21T19:11:07;9.10;99.90
16968;DHT22;64862;54.398;10.126;2024-02-21T19:21:09;9.10;99.90
16968;DHT22;64862;54.398;10.126;2024-02-21T19:31:13;9.10;99.90
16968;DHT22;64862;54.398;10.126;2024-02-21T19:41:15;9.10;99.90
16968;DHT22;64862;54.398;10.126;2024-02-21T19:51:18;9.10;99.90
16968;DHT22;64862;54.398;10.126;2024-02-21T20:01:20;9.10;99.90
16968;DHT22;64862;54.398;10.126;2024-02-21T20:11:24;9.10;99.90
16968;DHT22;64862;54.398;10.126;2024-02-21T20:21:30;9.00;99.90
16968;DHT22;64862;54.398;10.126;2024-02-21T20:31:34;9.10;99.90
16968;DHT22;64862;54.398;10.126;2024-02-21T20:41:36;9.00;99.90
16968;DHT22;64862;54.398;10.126;2024-02-21T20:51:40;9.10;99.90
16968;DHT22;64862;54.398;10.126;2024-02-21T21:01:43;9.00;99.90
16968;DHT22;64862;54.398;10.126;2024-02-21T21:11:48;8.90;99.90
16968;DHT22;64862;54.398;10.126;2024-02-21T21:21:50;8.80;99.90
16968;DHT22;64862;54.398;10.126;2024-02-21T21:31:55;8.80;99.90
16968;DHT22;64862;54.398;10.126;2024-02-21T21:41:57;8.80;99.90
16968;DHT22;64862;54.398;10.126;2024-02-21T21:52:01;8.80;99.90
16968;DHT22;64862;54.398;10.126;2024-02-21T22:02:05;8.80;99.90
16968;DHT22;64862;54.398;10.126;2024-02-21T22:12:09;8.70;99.90
16968;DHT22;64862;54.398;10.126;2024-02-21T22:22:11;8.60;99.90
16968;DHT22;64862;54.398;10.126;2024-02-21T22:32:15;8.50;99.90
16968;DHT22;64862;54.398;10.126;2024-02-21T22:42:17;8.50;99.90
16968;DHT22;64862;54.398;10.126;2024-02-21T22:52:22;8.50;99.90
16968;DHT22;64862;54.398;10.126;2024-02-21T23:02:26;8.50;99.90
16968;DHT22;64862;54.398;10.126;2024-02-21T23:12:29;8.50;99.90
16968;DHT22;64862;54.398;10.126;2024-02-21T23:22:32;8.50;99.90
16968;DHT22;64862;54.398;10.126;2024-02-21T23:32:35;8.50;99.90
16968;DHT22;64862;54.398;10.126;2024-02-21T23:42:37;8.50;99.90
16968;DHT22;64862;54.398;10.126;2024-02-21T23:52:43;8.40;99.90
